SLSB/SRJ METAR and TAF weather

Enter ICAO airport designator
Station Type Date Time Source
SLSB METAR 2019/04/14 11:00 UTC NOAA

SLSB 141100Z 00000KT 9999 SCT020 BKN200 23/23 Q1010 A2985 HR98 RWY NML


Station Type Date Time Source
SLSB Decoded METAR 2019/04/14 11:00 UTC NOAA

San Borja, Bolivia (SLSB) 14-52S 066-52W
Apr 14, 2019 - 07:00 AM EDT / 2019.04.14 1100 UTC
Wind: Calm:0
Visibility: greater than 7 mile(s):0
Sky conditions: mostly cloudy
Temperature: 73 F (23 C)
Dew Point: 73 F (23 C)
Relative Humidity: 100%
Pressure (altimeter): 29.85 in. Hg (1010 hPa)
ob: SLSB 141100Z 00000KT 9999 SCT020 BKN200 23/23 Q1010 A2985 HR98 RWY NML
cycle: 11

Station Type Date Time Source
SLSB TAF UTC NOAA

Error!

Example: see airport list